Time;durP1;ratioP1;P1;durP2;ratioP2;P2;SDS_P1;SDS_P2;PMS_P1;PMS_P2;Temp;Humidity;BMP_temperature;BMP_pressure;BME280_temperature;BME280_humidity;BME280_pressure;Samples;Min_cycle;Max_cycle;Signal;HPM_P1;HPM_P2
2023/07/15 00:01:21;;;;;;;2.42;2.20;;;23.10;59.80;;;;;;5114519;28;20185;-57
2023/07/15 00:03:47;;;;;;;2.70;2.50;;;23.20;59.30;;;;;;5095976;28;20216;-56
2023/07/15 00:06:13;;;;;;;2.53;2.33;;;23.10;59.90;;;;;;5114574;28;20169;-56
2023/07/15 00:08:39;;;;;;;2.28;2.08;;;23.10;59.20;;;;;;5114845;28;20172;-57
2023/07/15 00:11:04;;;;;;;2.38;2.17;;;23.10;59.30;;;;;;5113715;28;20166;-56
2023/07/15 00:13:30;;;;;;;2.30;2.10;;;23.10;59.30;;;;;;5096456;28;20188;-56
2023/07/15 00:15:57;;;;;;;2.97;2.33;;;23.10;59.20;;;;;;5114338;28;20177;-59
2023/07/15 00:18:22;;;;;;;2.22;2.05;;;23.10;59.20;;;;;;5114032;28;20177;-59
2023/07/15 00:20:48;;;;;;;2.33;2.15;;;23.10;59.20;;;;;;5114468;28;20703;-54
2023/07/15 00:23:24;;;;;;;2.00;1.90;;;23.10;59.30;;;;;;5114017;28;20209;-55
2023/07/15 00:25:53;;;;;;;2.30;2.10;;;23.10;59.20;;;;;;5113541;28;20623;-55
2023/07/15 00:28:22;;;;;;;2.70;2.50;;;23.10;59.30;;;;;;5113953;28;20627;-53
2023/07/15 00:30:52;;;;;;;2.17;1.98;;;23.10;59.30;;;;;;5114353;28;20177;-56
2023/07/15 00:33:19;;;;;;;2.40;2.20;;;23.10;59.30;;;;;;5078601;28;20198;-56
2023/07/15 00:35:45;;;;;;;2.63;2.42;;;23.10;59.30;;;;;;5114412;28;20180;-56
2023/07/15 00:38:11;;;;;;;2.78;2.53;;;23.10;59.30;;;;;;5112856;28;20204;-55
2023/07/15 00:40:42;;;;;;;2.45;2.25;;;23.10;59.30;;;;;;5114013;28;20223;-58
2023/07/15 00:43:45;;;;;;;2.45;2.25;;;23.10;59.90;;;;;;5095986;28;20620;-56
2023/07/15 00:46:27;;;;;;;2.30;2.10;;;23.10;59.30;;;;;;5112846;28;20201;-56
2023/07/15 00:48:53;;;;;;;2.60;2.40;;;23.10;59.30;;;;;;5096200;28;20173;-56
2023/07/15 00:51:19;;;;;;;3.05;2.30;;;23.10;59.40;;;;;;5113824;28;20180;-56
2023/07/15 00:53:44;;;;;;;2.92;2.03;;;23.10;59.30;;;;;;5078161;28;20177;-56
2023/07/15 00:56:10;;;;;;;3.00;2.58;;;23.10;59.40;;;;;;5113677;28;20183;-55
2023/07/15 00:58:35;;;;;;;2.28;2.08;;;23.10;59.30;;;;;;5095834;28;20218;-53
2023/07/15 01:01:01;;;;;;;2.20;2.08;;;23.10;59.40;;;;;;5112784;28;20700;-56
2023/07/15 01:03:27;;;;;;;2.42;2.20;;;23.10;59.30;;;;;;5095146;28;20563;-56
2023/07/15 01:05:52;;;;;;;2.40;2.20;;;23.10;59.40;;;;;;5113853;28;20197;-57
2023/07/15 01:08:18;;;;;;;2.22;2.03;;;23.10;59.40;;;;;;5112827;28;20169;-57
2023/07/15 01:10:43;;;;;;;2.55;2.35;;;23.10;59.40;;;;;;5113695;28;20210;-56
2023/07/15 01:13:09;;;;;;;2.42;2.22;;;23.10;59.40;;;;;;5113280;28;20173;-55
2023/07/15 01:15:34;;;;;;;2.60;2.40;;;23.10;59.30;;;;;;5112865;28;20627;-54
2023/07/15 01:18:00;;;;;;;2.15;1.95;;;23.10;60.00;;;;;;5113335;28;20173;-56
2023/07/15 01:20:26;;;;;;;2.45;2.25;;;23.10;59.40;;;;;;5113186;28;20173;-57
2023/07/15 01:22:51;;;;;;;2.45;2.25;;;23.10;59.40;;;;;;5113297;28;20201;-55
2023/07/15 01:25:17;;;;;;;2.22;2.03;;;23.10;59.40;;;;;;5094985;28;20207;-55
2023/07/15 01:27:42;;;;;;;1.88;1.77;;;23.10;59.40;;;;;;5112706;28;20173;-54
2023/07/15 01:30:09;;;;;;;2.63;2.15;;;23.10;59.40;;;;;;5112982;28;20174;-56
2023/07/15 01:32:35;;;;;;;2.40;2.20;;;23.10;59.40;;;;;;5113234;28;20174;-54
2023/07/15 01:35:03;;;;;;;2.35;2.10;;;23.10;59.40;;;;;;5112175;28;20177;-55
2023/07/15 01:37:29;;;;;;;2.08;1.98;;;23.10;59.30;;;;;;5113481;28;20181;-57
2023/07/15 01:39:54;;;;;;;2.20;1.95;;;23.10;59.40;;;;;;5113197;28;20282;-57
2023/07/15 01:42:20;;;;;;;2.83;2.20;;;23.10;60.00;;;;;;5112268;28;20164;-56
2023/07/15 01:44:45;;;;;;;2.47;2.28;;;23.10;59.30;;;;;;5113075;28;20224;-57
2023/07/15 01:47:11;;;;;;;2.72;2.50;;;23.10;59.30;;;;;;5112827;28;20173;-55
2023/07/15 01:49:36;;;;;;;2.40;2.20;;;23.10;59.30;;;;;;5112569;28;20175;-55
2023/07/15 01:52:02;;;;;;;2.53;2.33;;;23.10;59.30;;;;;;5112763;28;20268;-56
2023/07/15 01:54:27;;;;;;;2.42;2.25;;;23.10;59.20;;;;;;5113290;28;20177;-55
2023/07/15 01:56:53;;;;;;;2.00;1.90;;;23.10;59.30;;;;;;5112351;28;20256;-56
2023/07/15 01:59:18;;;;;;;2.00;1.90;;;23.10;59.30;;;;;;5112836;28;20176;-55
2023/07/15 02:01:44;;;;;;;2.38;2.17;;;23.10;59.20;;;;;;5112974;28;20173;-56
2023/07/15 02:04:09;;;;;;;2.40;2.20;;;23.10;59.20;;;;;;5112073;28;20273;-56
2023/07/15 02:06:35;;;;;;;2.35;2.15;;;23.00;59.20;;;;;;5112914;28;20210;-56
2023/07/15 02:09:01;;;;;;;2.50;2.30;;;23.10;59.20;;;;;;5112698;28;20192;-55
2023/07/15 02:11:26;;;;;;;2.28;2.08;;;23.10;59.20;;;;;;5112317;28;20180;-55
2023/07/15 02:13:52;;;;;;;2.10;1.90;;;23.10;59.20;;;;;;5113167;28;20173;-55
2023/07/15 02:16:19;;;;;;;2.47;1.88;;;23.10;59.20;;;;;;5114102;28;20165;-56
2023/07/15 02:18:44;;;;;;;2.38;2.05;;;23.10;59.20;;;;;;5116013;28;20177;-57
2023/07/15 02:21:10;;;;;;;2.50;2.30;;;23.10;59.20;;;;;;5116761;28;20191;-57
2023/07/15 02:23:36;;;;;;;2.40;2.20;;;23.10;59.20;;;;;;5116703;28;20205;-57
2023/07/15 02:26:01;;;;;;;2.42;2.17;;;23.10;59.20;;;;;;5115903;28;20177;-55
2023/07/15 02:28:27;;;;;;;2.20;2.00;;;23.10;59.80;;;;;;5116512;28;20269;-51
2023/07/15 02:30:54;;;;;;;2.47;2.28;;;23.10;59.10;;;;;;5115811;28;20632;-52
2023/07/15 02:33:20;;;;;;;2.17;1.98;;;23.10;59.10;;;;;;5116495;28;20222;-55
2023/07/15 02:35:45;;;;;;;2.45;2.25;;;23.10;59.20;;;;;;5116552;28;20173;-57
2023/07/15 02:38:11;;;;;;;2.05;1.95;;;23.10;59.20;;;;;;5115260;28;20224;-56
2023/07/15 02:40:36;;;;;;;1.90;1.80;;;23.10;59.20;;;;;;5116604;28;20173;-57
2023/07/15 02:43:02;;;;;;;2.03;1.92;;;23.10;59.20;;;;;;5116049;28;20232;-56
2023/07/15 02:45:27;;;;;;;1.85;1.75;;;23.00;59.10;;;;;;5115614;28;20176;-54
2023/07/15 02:47:53;;;;;;;2.22;2.05;;;23.00;59.20;;;;;;5116633;28;20181;-57
2023/07/15 02:50:19;;;;;;;2.40;2.20;;;23.10;59.20;;;;;;5115863;28;20221;-54
2023/07/15 02:52:45;;;;;;;1.98;1.75;;;23.00;59.20;;;;;;5115600;28;20257;-55
2023/07/15 02:55:11;;;;;;;2.47;2.33;;;23.00;59.20;;;;;;5115926;28;20181;-56
2023/07/15 02:57:36;;;;;;;2.22;2.00;;;23.00;59.20;;;;;;5116221;28;20515;-56
2023/07/15 03:00:09;;;;;;;2.33;2.13;;;23.00;59.40;;;;;;5115115;28;20177;-56
2023/07/15 03:02:35;;;;;;;2.22;2.03;;;23.10;59.20;;;;;;5115968;28;20189;-56
2023/07/15 03:05:02;;;;;;;2.22;2.03;;;23.00;59.20;;;;;;5115756;28;20213;-58
2023/07/15 03:07:28;;;;;;;2.35;2.15;;;23.00;59.20;;;;;;5115209;28;20536;-56
2023/07/15 03:09:54;;;;;;;2.15;1.98;;;23.10;59.20;;;;;;5116039;28;20185;-56
2023/07/15 03:12:19;;;;;;;2.35;1.80;;;23.00;59.20;;;;;;5115586;28;20213;-54
2023/07/15 03:14:45;;;;;;;2.38;2.08;;;23.00;59.20;;;;;;5114957;28;20173;-55
2023/07/15 03:17:10;;;;;;;2.05;1.85;;;23.00;59.20;;;;;;5115361;28;20177;-54
2023/07/15 03:19:37;;;;;;;2.28;2.08;;;23.00;59.20;;;;;;5115780;28;20183;-55
2023/07/15 03:22:03;;;;;;;1.90;1.80;;;23.00;59.20;;;;;;5114730;28;20180;-55
2023/07/15 03:24:29;;;;;;;2.30;2.10;;;23.00;59.20;;;;;;5115607;28;20213;-55
2023/07/15 03:26:54;;;;;;;2.10;2.00;;;23.00;59.20;;;;;;5115153;28;20169;-54
2023/07/15 03:29:22;;;;;;;1.92;1.83;;;23.00;59.30;;;;;;5114860;28;20216;-52
2023/07/15 03:31:48;;;;;;;2.30;2.10;;;23.00;59.20;;;;;;5115933;28;20177;-54
2023/07/15 03:34:13;;;;;;;2.20;2.00;;;23.00;59.20;;;;;;5114629;28;20200;-56
2023/07/15 03:36:39;;;;;;;2.92;2.28;;;23.00;59.30;;;;;;5115327;28;20169;-57
2023/07/15 03:39:05;;;;;;;2.28;2.08;;;23.00;59.20;;;;;;5114911;28;20702;-57
2023/07/15 03:41:31;;;;;;;1.90;1.80;;;23.00;59.20;;;;;;5114588;28;20175;-57
2023/07/15 03:43:57;;;;;;;2.30;2.10;;;23.00;59.90;;;;;;5114780;28;20215;-57
2023/07/15 03:46:23;;;;;;;1.95;1.85;;;23.00;59.30;;;;;;5115075;28;20174;-56
2023/07/15 03:48:49;;;;;;;2.47;1.98;;;23.00;59.20;;;;;;5114566;28;20185;-56
2023/07/15 03:51:14;;;;;;;1.83;1.73;;;23.00;59.30;;;;;;5114888;28;20169;-54
2023/07/15 03:53:40;;;;;;;2.00;1.90;;;22.90;59.20;;;;;;5115272;28;20605;-55
2023/07/15 03:56:06;;;;;;;1.92;1.83;;;23.00;59.30;;;;;;5114037;28;20699;-55
2023/07/15 03:58:32;;;;;;;2.08;1.85;;;23.00;59.30;;;;;;5115044;28;20173;-55
2023/07/15 04:00:57;;;;;;;2.72;1.98;;;23.00;59.30;;;;;;5114774;28;20569;-57
2023/07/15 04:03:23;;;;;;;1.88;1.77;;;23.00;59.30;;;;;;5095945;28;20283;-55
2023/07/15 04:05:48;;;;;;;1.98;1.88;;;23.00;59.30;;;;;;5114900;28;20223;-57
2023/07/15 04:08:14;;;;;;;2.28;2.08;;;23.00;59.20;;;;;;5114446;28;20665;-56
2023/07/15 04:10:39;;;;;;;2.38;2.17;;;23.00;59.30;;;;;;5114004;28;20169;-56
2023/07/15 04:13:07;;;;;;;2.55;2.03;;;23.00;59.90;;;;;;5114180;28;20192;-56
2023/07/15 04:15:33;;;;;;;1.85;1.75;;;23.00;59.20;;;;;;5114784;28;20180;-55
2023/07/15 04:17:59;;;;;;;2.38;2.17;;;23.00;59.20;;;;;;5113556;28;20166;-56
2023/07/15 04:20:24;;;;;;;2.10;1.90;;;23.00;59.20;;;;;;5114676;28;20225;-56
2023/07/15 04:22:50;;;;;;;1.70;1.60;;;23.00;59.20;;;;;;5114341;28;20170;-57
2023/07/15 04:25:15;;;;;;;2.35;1.90;;;23.00;59.80;;;;;;5113414;28;20185;-55
2023/07/15 04:27:41;;;;;;;2.08;1.88;;;23.00;59.20;;;;;;5114453;28;20173;-55
2023/07/15 04:30:09;;;;;;;2.35;2.25;;;23.00;59.20;;;;;;5113980;28;20184;-55
2023/07/15 04:32:34;;;;;;;1.88;1.70;;;23.00;59.20;;;;;;5113507;28;20639;-57
2023/07/15 04:35:01;;;;;;;1.75;1.65;;;23.00;59.20;;;;;;5113877;28;20180;-57
2023/07/15 04:37:27;;;;;;;2.42;1.90;;;23.00;59.20;;;;;;5113739;28;20180;-58
2023/07/15 04:39:53;;;;;;;1.95;1.85;;;23.00;59.20;;;;;;5113338;28;20225;-56
2023/07/15 04:42:18;;;;;;;1.98;1.88;;;23.00;59.20;;;;;;5113569;28;20196;-57
2023/07/15 04:44:44;;;;;;;2.13;1.92;;;23.00;59.20;;;;;;5113085;28;20212;-58
2023/07/15 04:47:09;;;;;;;2.00;1.90;;;23.00;59.20;;;;;;5113554;28;20226;-57
2023/07/15 04:49:35;;;;;;;1.70;1.60;;;23.00;59.20;;;;;;5113844;28;20169;-56
2023/07/15 04:52:00;;;;;;;1.98;1.88;;;23.00;59.20;;;;;;5113113;28;20177;-57
2023/07/15 04:54:26;;;;;;;1.73;1.63;;;23.00;59.20;;;;;;5114086;28;20566;-55
2023/07/15 04:56:52;;;;;;;1.63;1.52;;;23.00;59.20;;;;;;5113113;28;20254;-55
2023/07/15 04:59:17;;;;;;;1.88;1.77;;;23.00;59.20;;;;;;5112938;28;20177;-56
2023/07/15 05:01:43;;;;;;;2.10;2.00;;;23.00;59.80;;;;;;5113847;28;20580;-55
2023/07/15 05:04:08;;;;;;;2.00;1.80;;;23.00;59.20;;;;;;5113415;28;20291;-56
2023/07/15 05:06:34;;;;;;;1.70;1.60;;;23.00;59.20;;;;;;5113067;28;20559;-56
2023/07/15 05:09:00;;;;;;;2.00;1.90;;;23.00;59.80;;;;;;5095446;28;20715;-56
2023/07/15 05:11:26;;;;;;;1.80;1.70;;;23.00;59.80;;;;;;5113688;28;20173;-55
2023/07/15 05:13:52;;;;;;;2.38;2.17;;;23.00;59.20;;;;;;5113023;28;20233;-53
2023/07/15 05:16:17;;;;;;;1.92;1.83;;;23.00;59.20;;;;;;5113151;28;20252;-56
2023/07/15 05:18:43;;;;;;;1.85;1.75;;;23.00;59.20;;;;;;5113520;28;20180;-56
2023/07/15 05:21:09;;;;;;;2.03;1.83;;;23.00;59.20;;;;;;5112628;28;20169;-57
2023/07/15 05:23:35;;;;;;;1.75;1.63;;;23.00;59.20;;;;;;5113579;28;20709;-55
2023/07/15 05:26:00;;;;;;;2.45;2.25;;;23.00;59.60;;;;;;5112939;28;20635;-55
2023/07/15 05:28:30;;;;;;;1.88;1.75;;;23.00;59.20;;;;;;5112727;28;20666;-55
2023/07/15 05:30:59;;;;;;;1.77;1.67;;;23.00;59.20;;;;;;5113276;28;20193;-55
2023/07/15 05:33:25;;;;;;;2.28;2.00;;;23.10;59.20;;;;;;5113581;28;20177;-57
2023/07/15 05:35:50;;;;;;;2.00;1.90;;;23.00;59.20;;;;;;5112669;28;20193;-57
2023/07/15 05:38:16;;;;;;;2.05;1.80;;;23.10;59.20;;;;;;5112781;28;20176;-56
2023/07/15 05:40:42;;;;;;;1.60;1.50;;;23.00;59.20;;;;;;5112643;28;20528;-57
2023/07/15 05:43:08;;;;;;;1.90;1.80;;;23.10;59.20;;;;;;5112842;28;20292;-58
2023/07/15 05:45:33;;;;;;;1.92;1.65;;;23.10;59.20;;;;;;5113380;28;20201;-57
2023/07/15 05:47:59;;;;;;;2.03;1.83;;;23.10;59.20;;;;;;5112244;28;20199;-57
2023/07/15 05:50:24;;;;;;;1.60;1.50;;;23.00;59.20;;;;;;5113311;28;20655;-55
2023/07/15 05:52:50;;;;;;;1.88;1.70;;;23.10;59.20;;;;;;5117391;28;20614;-55
2023/07/15 05:55:17;;;;;;;2.50;1.92;;;23.10;59.20;;;;;;5116406;28;20181;-51
2023/07/15 05:57:43;;;;;;;1.60;1.50;;;23.10;59.20;;;;;;5117844;28;20173;-56
2023/07/15 06:00:09;;;;;;;1.80;1.70;;;23.10;59.20;;;;;;5116960;28;20180;-57
2023/07/15 06:02:36;;;;;;;2.03;1.90;;;23.10;59.20;;;;;;5098617;28;20205;-55
2023/07/15 06:05:02;;;;;;;1.70;1.60;;;23.10;59.20;;;;;;5116788;28;20543;-57
2023/07/15 06:07:27;;;;;;;2.65;1.98;;;23.10;59.20;;;;;;5117055;28;20169;-55
2023/07/15 06:09:53;;;;;;;2.05;1.90;;;23.10;59.20;;;;;;5116195;28;20636;-56
2023/07/15 06:12:18;;;;;;;1.98;1.88;;;23.10;59.20;;;;;;5116812;28;20173;-55
2023/07/15 06:14:44;;;;;;;2.05;1.85;;;23.10;59.20;;;;;;5117082;28;20177;-55
2023/07/15 06:17:10;;;;;;;1.70;1.60;;;23.10;59.20;;;;;;5116145;28;20169;-55
2023/07/15 06:19:36;;;;;;;1.70;1.60;;;23.10;59.20;;;;;;5116831;28;20175;-55
2023/07/15 06:22:01;;;;;;;1.90;1.80;;;23.10;59.20;;;;;;5098473;28;20314;-53
2023/07/15 06:24:27;;;;;;;1.70;1.60;;;23.10;59.20;;;;;;5115984;28;20657;-55
2023/07/15 06:26:52;;;;;;;2.08;1.80;;;23.10;59.20;;;;;;5116946;28;20620;-55
2023/07/15 06:29:18;;;;;;;1.90;1.80;;;23.10;59.20;;;;;;5116599;28;20508;-55
2023/07/15 06:31:44;;;;;;;1.92;1.75;;;23.10;59.20;;;;;;5115924;28;20563;-55
2023/07/15 06:34:10;;;;;;;1.80;1.70;;;23.10;59.20;;;;;;5116425;28;20177;-56
2023/07/15 06:36:35;;;;;;;1.88;1.77;;;23.10;59.20;;;;;;5116532;28;20581;-56
2023/07/15 06:39:02;;;;;;;2.22;1.75;;;23.10;59.20;;;;;;5084875;28;20316;-57
2023/07/15 06:41:28;;;;;;;1.65;1.55;;;23.10;59.20;;;;;;5075918;28;20174;-57
2023/07/15 06:43:53;;;;;;;2.03;1.50;;;23.10;59.80;;;;;;5075134;28;20210;-57
2023/07/15 06:46:19;;;;;;;2.10;1.90;;;23.10;59.20;;;;;;5075664;28;20633;-59
2023/07/15 06:48:48;;;;;;;1.60;1.50;;;23.10;59.20;;;;;;5057908;28;20717;-56
2023/07/15 06:51:14;;;;;;;1.70;1.60;;;23.10;59.20;;;;;;5074548;28;20170;-52
2023/07/15 06:53:40;;;;;;;1.60;1.50;;;23.10;59.20;;;;;;5075567;28;20659;-55
2023/07/15 06:56:06;;;;;;;1.95;1.75;;;23.10;59.20;;;;;;5075230;28;20175;-55
2023/07/15 06:58:31;;;;;;;1.80;1.70;;;23.10;59.20;;;;;;5074659;28;20175;-55
2023/07/15 07:00:57;;;;;;;1.90;1.80;;;23.10;59.20;;;;;;5075090;28;20185;-56
2023/07/15 07:03:23;;;;;;;2.05;1.80;;;23.10;59.20;;;;;;5074810;28;20210;-57
2023/07/15 07:05:48;;;;;;;1.95;1.80;;;23.10;59.20;;;;;;5074552;28;20265;-57
2023/07/15 07:08:14;;;;;;;1.77;1.67;;;23.10;59.10;;;;;;5075067;28;20170;-56
2023/07/15 07:10:39;;;;;;;2.33;1.63;;;23.10;59.10;;;;;;5075454;28;20262;-57
2023/07/15 07:13:05;;;;;;;1.58;1.48;;;23.10;59.20;;;;;;5074338;28;20241;-56
2023/07/15 07:15:31;;;;;;;1.52;1.42;;;23.10;59.80;;;;;;5075279;28;20171;-56
2023/07/15 07:17:57;;;;;;;2.30;2.10;;;23.10;59.10;;;;;;5075045;28;20201;-56
2023/07/15 07:20:22;;;;;;;1.63;1.52;;;23.10;59.70;;;;;;5074348;28;20614;-55
2023/07/15 07:22:48;;;;;;;1.70;1.60;;;23.10;59.10;;;;;;5074954;28;20243;-55
2023/07/15 07:25:13;;;;;;;2.40;1.60;;;23.20;59.20;;;;;;5074828;28;20301;-55
2023/07/15 07:27:39;;;;;;;1.50;1.40;;;23.20;59.20;;;;;;5074433;28;20167;-54
2023/07/15 07:30:06;;;;;;;1.98;1.88;;;23.20;59.80;;;;;;5074812;28;20177;-54
2023/07/15 07:32:31;;;;;;;1.85;1.70;;;23.10;59.20;;;;;;5074734;28;20629;-55
2023/07/15 07:34:58;;;;;;;2.78;1.73;;;23.10;59.20;;;;;;5073677;28;20183;-57
2023/07/15 07:37:23;;;;;;;1.55;1.45;;;23.10;59.20;;;;;;5074913;28;20182;-57
2023/07/15 07:39:49;;;;;;;1.73;1.63;;;23.20;59.20;;;;;;5105376;28;20221;-57
2023/07/15 07:42:14;;;;;;;1.60;1.50;;;23.20;59.20;;;;;;5114393;28;20176;-57
2023/07/15 07:44:40;;;;;;;1.80;1.70;;;23.20;59.20;;;;;;5115282;28;20216;-57
2023/07/15 07:47:05;;;;;;;1.48;1.38;;;23.20;59.20;;;;;;5115002;28;20255;-56
2023/07/15 07:49:31;;;;;;;1.70;1.60;;;23.20;59.20;;;;;;5114386;28;20260;-56
2023/07/15 07:51:57;;;;;;;1.73;1.63;;;23.20;59.10;;;;;;5114778;28;20184;-54
2023/07/15 07:54:22;;;;;;;1.50;1.40;;;23.20;59.10;;;;;;5114483;28;20177;-55
2023/07/15 07:56:48;;;;;;;1.85;1.75;;;23.20;59.20;;;;;;5115157;28;20639;-55
2023/07/15 07:59:13;;;;;;;1.60;1.50;;;23.20;59.20;;;;;;5114937;28;20598;-56
2023/07/15 08:01:39;;;;;;;2.58;1.70;;;23.20;59.80;;;;;;5114432;28;20578;-56
2023/07/15 08:04:04;;;;;;;1.60;1.50;;;23.20;59.20;;;;;;5114688;28;20205;-57
2023/07/15 08:06:30;;;;;;;1.70;1.60;;;23.20;59.20;;;;;;5114859;28;20169;-57
2023/07/15 08:08:56;;;;;;;1.63;1.52;;;23.20;59.10;;;;;;5113978;28;20165;-56
2023/07/15 08:11:21;;;;;;;1.50;1.40;;;23.30;59.10;;;;;;5114953;28;20790;-55
2023/07/15 08:13:47;;;;;;;1.60;1.50;;;23.30;59.00;;;;;;5113781;28;20675;-56
2023/07/15 08:16:36;;;;;;;1.67;1.58;;;23.30;59.10;;;;;;5113548;28;20173;-56
2023/07/15 08:19:02;;;;;;;1.92;1.80;;;23.30;59.00;;;;;;5114253;28;20974;-56
2023/07/15 08:21:28;;;;;;;1.50;1.40;;;23.30;59.00;;;;;;5114659;28;20181;-56
2023/07/15 08:23:54;;;;;;;1.65;1.55;;;23.30;59.00;;;;;;5113615;28;20263;-56
2023/07/15 08:26:20;;;;;;;1.60;1.42;;;23.30;59.00;;;;;;5114311;28;20173;-55
2023/07/15 08:28:46;;;;;;;1.65;1.55;;;23.30;59.00;;;;;;5114372;28;20173;-55
2023/07/15 08:31:11;;;;;;;2.15;1.58;;;23.30;59.10;;;;;;5113312;28;20272;-56
2023/07/15 08:33:37;;;;;;;1.55;1.45;;;23.40;59.40;;;;;;5114169;28;20179;-57
2023/07/15 08:36:02;;;;;;;1.60;1.50;;;23.30;59.80;;;;;;5113959;28;20255;-57
2023/07/15 08:38:28;;;;;;;1.65;1.52;;;23.40;59.20;;;;;;5113444;28;20217;-58
2023/07/15 08:40:54;;;;;;;1.83;1.73;;;23.30;59.10;;;;;;5114238;28;20203;-57
2023/07/15 08:43:20;;;;;;;1.50;1.40;;;23.30;59.20;;;;;;5078796;28;20193;-58
2023/07/15 08:45:45;;;;;;;1.70;1.60;;;23.40;59.20;;;;;;5113327;28;20247;-57
2023/07/15 08:48:12;;;;;;;1.50;1.40;;;23.40;59.10;;;;;;5078806;28;20262;-57
2023/07/15 08:50:37;;;;;;;1.73;1.63;;;23.40;59.10;;;;;;5095146;28;20238;-56
2023/07/15 08:53:03;;;;;;;1.70;1.60;;;23.40;59.10;;;;;;5095751;28;20173;-56
2023/07/15 08:55:29;;;;;;;1.75;1.65;;;23.40;59.10;;;;;;5113945;28;20176;-57
2023/07/15 08:57:56;;;;;;;2.00;1.90;;;23.40;59.10;;;;;;5113241;28;20173;-55
2023/07/15 09:00:21;;;;;;;1.50;1.40;;;23.40;59.10;;;;;;5095614;28;20181;-55
2023/07/15 09:02:47;;;;;;;1.50;1.40;;;23.40;59.10;;;;;;5113698;28;20183;-55
2023/07/15 09:05:12;;;;;;;1.60;1.50;;;23.40;59.10;;;;;;5112774;28;20297;-56
2023/07/15 09:07:50;;;;;;;1.45;1.30;;;23.40;59.10;;;;;;5113787;28;20176;-57
2023/07/15 09:10:16;;;;;;;1.60;1.50;;;23.40;59.10;;;;;;5113500;28;20181;-56
2023/07/15 09:12:52;;;;;;;1.60;1.50;;;23.40;59.10;;;;;;5112811;28;20624;-56
2023/07/15 09:15:17;;;;;;;1.60;1.50;;;23.40;59.10;;;;;;5113219;28;20191;-55
2023/07/15 09:17:55;;;;;;;1.58;1.48;;;23.50;59.10;;;;;;5113737;28;20176;-56
2023/07/15 09:20:21;;;;;;;1.58;1.45;;;23.40;59.10;;;;;;5112889;28;20177;-56
2023/07/15 09:22:53;;;;;;;1.60;1.50;;;23.50;59.20;;;;;;5113464;28;20177;-56
2023/07/15 09:25:21;;;;;;;1.85;1.50;;;23.50;59.80;;;;;;5112952;28;20221;-56
2023/07/15 09:27:46;;;;;;;1.98;1.70;;;23.50;59.20;;;;;;5112624;28;20177;-55
2023/07/15 09:30:12;;;;;;;1.60;1.50;;;23.50;59.10;;;;;;5113028;28;20213;-54
2023/07/15 09:32:37;;;;;;;1.70;1.60;;;23.50;59.20;;;;;;5113397;28;20171;-56
2023/07/15 09:35:04;;;;;;;1.80;1.70;;;23.50;59.20;;;;;;5112435;28;20177;-56
2023/07/15 09:37:30;;;;;;;1.65;1.55;;;23.40;59.20;;;;;;5113141;28;20583;-58
2023/07/15 09:39:58;;;;;;;2.03;1.60;;;23.40;59.80;;;;;;5112114;28;20224;-57
2023/07/15 09:42:26;;;;;;;1.60;1.50;;;23.50;59.20;;;;;;5095088;28;20230;-57
2023/07/15 09:44:52;;;;;;;1.52;1.42;;;23.40;59.20;;;;;;5113349;28;20291;-58
2023/07/15 09:47:17;;;;;;;1.60;1.50;;;23.40;59.20;;;;;;5112311;28;20268;-57
2023/07/15 09:49:43;;;;;;;2.03;1.35;;;23.40;59.30;;;;;;5113141;28;20211;-54
2023/07/15 09:52:09;;;;;;;2.15;1.48;;;23.40;59.30;;;;;;5112969;28;20180;-55
2023/07/15 09:54:35;;;;;;;1.60;1.48;;;23.40;59.30;;;;;;5094239;28;20623;-56
2023/07/15 09:57:13;;;;;;;1.55;1.45;;;23.40;59.30;;;;;;5112729;28;20177;-51
2023/07/15 09:59:48;;;;;;;1.48;1.38;;;23.40;59.30;;;;;;5096916;28;20172;-55
2023/07/15 10:02:28;;;;;;;1.50;1.40;;;23.40;59.20;;;;;;5093990;28;20255;-57
2023/07/15 10:04:53;;;;;;;1.60;1.50;;;23.50;59.20;;;;;;5112843;28;20201;-57
2023/07/15 10:07:19;;;;;;;1.90;1.50;;;23.50;59.20;;;;;;5094595;28;20198;-57
2023/07/15 10:09:44;;;;;;;1.45;1.30;;;23.50;59.20;;;;;;5112194;28;20180;-55
2023/07/15 10:12:10;;;;;;;1.65;1.55;;;23.50;59.10;;;;;;5112818;28;20310;-56
2023/07/15 10:14:36;;;;;;;2.03;1.70;;;23.60;59.10;;;;;;5112940;28;20309;-56
2023/07/15 10:17:12;;;;;;;1.25;1.15;;;23.60;59.10;;;;;;5076851;28;20533;-54
2023/07/15 10:19:42;;;;;;;1.30;1.20;;;23.50;59.10;;;;;;5112864;28;20540;-56
2023/07/15 10:22:08;;;;;;;2.17;1.63;;;23.50;59.70;;;;;;5112056;28;20174;-56
2023/07/15 10:24:34;;;;;;;1.40;1.30;;;23.50;59.20;;;;;;5112864;28;20266;-55
2023/07/15 10:27:05;;;;;;;1.45;1.35;;;23.50;59.20;;;;;;5112690;28;20176;-51
2023/07/15 10:29:31;;;;;;;1.38;1.27;;;23.50;59.20;;;;;;5112286;28;20577;-56
2023/07/15 10:32:09;;;;;;;2.25;1.30;;;23.50;59.30;;;;;;5112423;28;20681;-56
2023/07/15 10:34:36;;;;;;;1.48;1.38;;;23.50;59.20;;;;;;5112921;28;20204;-56
2023/07/15 10:37:06;;;;;;;1.50;1.40;;;23.50;59.30;;;;;;5112836;28;20636;-56
2023/07/15 10:39:32;;;;;;;1.60;1.40;;;23.50;59.20;;;;;;5116347;28;20307;-57
2023/07/15 10:41:57;;;;;;;1.58;1.48;;;23.50;59.30;;;;;;5116170;28;20261;-57
2023/07/15 10:44:24;;;;;;;1.38;1.27;;;23.50;59.30;;;;;;5080313;28;20238;-57
2023/07/15 10:46:59;;;;;;;2.45;1.50;;;23.50;59.30;;;;;;5116234;28;20204;-57
2023/07/15 10:49:24;;;;;;;2.25;1.60;;;23.50;59.30;;;;;;5116528;28;20168;-56
2023/07/15 10:51:54;;;;;;;1.58;1.40;;;23.50;59.30;;;;;;5115808;28;20226;-56
2023/07/15 10:54:27;;;;;;;2.00;1.40;;;23.50;59.30;;;;;;5116138;28;20184;-56
2023/07/15 10:56:53;;;;;;;2.00;1.23;;;23.50;59.30;;;;;;5116298;28;20177;-56
2023/07/15 10:59:18;;;;;;;1.10;1.10;;;23.50;59.30;;;;;;5114972;28;20177;-56
2023/07/15 11:01:44;;;;;;;1.30;1.20;;;23.50;59.30;;;;;;5116284;28;20173;-56
2023/07/15 11:04:10;;;;;;;1.67;1.35;;;23.50;59.30;;;;;;5115068;28;20216;-59
2023/07/15 11:06:35;;;;;;;1.50;1.40;;;23.50;59.30;;;;;;5116234;28;20181;-57
2023/07/15 11:09:13;;;;;;;2.03;1.45;;;23.50;59.30;;;;;;5115659;28;20278;-55
2023/07/15 11:11:39;;;;;;;1.73;1.63;;;23.50;59.30;;;;;;5115376;28;20204;-56
2023/07/15 11:14:04;;;;;;;1.30;1.20;;;23.50;59.20;;;;;;5115464;28;20576;-55
2023/07/15 11:16:30;;;;;;;1.17;1.08;;;23.50;59.20;;;;;;5115967;28;20219;-55
2023/07/15 11:18:57;;;;;;;1.35;1.25;;;23.60;59.20;;;;;;5115066;28;20184;-57
2023/07/15 11:21:22;;;;;;;1.50;1.40;;;23.60;59.20;;;;;;5098035;28;20184;-56
2023/07/15 11:23:48;;;;;;;1.40;1.30;;;23.60;59.20;;;;;;5115621;28;20601;-56
2023/07/15 11:26:13;;;;;;;1.85;1.33;;;23.60;59.20;;;;;;5096358;28;20557;-55
2023/07/15 11:28:47;;;;;;;1.67;1.40;;;23.60;59.20;;;;;;5115807;28;20699;-55
2023/07/15 11:31:12;;;;;;;1.42;1.33;;;23.60;59.20;;;;;;5115179;28;20177;-55
2023/07/15 11:33:38;;;;;;;1.25;1.15;;;23.50;59.20;;;;;;5114707;28;20169;-56
2023/07/15 11:36:03;;;;;;;1.20;1.20;;;23.60;59.20;;;;;;5115077;28;20190;-57
2023/07/15 11:38:32;;;;;;;1.40;1.20;;;23.60;59.20;;;;;;5115217;28;20224;-57
2023/07/15 11:41:01;;;;;;;1.83;1.40;;;23.60;59.20;;;;;;5114335;28;20246;-58
2023/07/15 11:43:28;;;;;;;1.55;1.45;;;23.60;59.20;;;;;;5115338;28;20205;-57
2023/07/15 11:45:57;;;;;;;1.48;1.38;;;23.60;59.80;;;;;;5115488;28;20248;-56
2023/07/15 11:48:24;;;;;;;1.45;1.35;;;23.60;59.20;;;;;;5114451;28;20177;-55
2023/07/15 11:50:50;;;;;;;1.65;1.55;;;23.60;59.30;;;;;;5115208;28;20173;-56
2023/07/15 11:53:31;;;;;;;1.50;1.15;;;23.60;59.20;;;;;;5114888;28;20655;-56
2023/07/15 11:55:57;;;;;;;1.50;1.40;;;23.60;59.20;;;;;;5114917;28;20177;-56
2023/07/15 11:58:44;;;;;;;1.77;1.50;;;23.60;59.80;;;;;;5097056;28;20172;-56
2023/07/15 12:01:13;;;;;;;1.95;1.20;;;23.60;59.20;;;;;;5113978;28;20765;-57
2023/07/15 12:03:40;;;;;;;1.60;1.50;;;23.60;59.20;;;;;;5114973;28;20208;-57
2023/07/15 12:06:16;;;;;;;1.83;1.48;;;23.60;59.80;;;;;;5114450;28;20169;-57
2023/07/15 12:08:42;;;;;;;1.20;1.10;;;23.60;59.20;;;;;;5114214;28;20176;-57
2023/07/15 12:11:07;;;;;;;1.25;1.15;;;23.60;59.20;;;;;;5114618;28;20180;-57
2023/07/15 12:13:33;;;;;;;1.38;1.30;;;23.60;59.10;;;;;;5114754;28;20173;-56
2023/07/15 12:15:59;;;;;;;1.50;1.40;;;23.60;59.10;;;;;;5113590;28;20298;-57
2023/07/15 12:18:25;;;;;;;1.10;1.00;;;23.70;59.20;;;;;;5114680;28;20174;-57
2023/07/15 12:20:51;;;;;;;1.30;1.20;;;23.60;59.20;;;;;;5114766;28;20171;-60
2023/07/15 12:23:16;;;;;;;1.48;1.38;;;23.60;59.20;;;;;;5113485;28;20180;-54
2023/07/15 12:25:42;;;;;;;1.58;1.35;;;23.60;59.80;;;;;;5114566;28;20195;-56
2023/07/15 12:28:07;;;;;;;1.58;1.48;;;23.60;59.10;;;;;;5114075;28;20175;-55
2023/07/15 12:30:33;;;;;;;1.38;1.27;;;23.60;59.10;;;;;;5113625;28;20203;-55
2023/07/15 12:32:58;;;;;;;1.23;1.20;;;23.70;59.10;;;;;;5114103;28;20173;-56
2023/07/15 12:35:24;;;;;;;1.45;1.08;;;23.70;59.00;;;;;;5114462;28;20175;-56
2023/07/15 12:37:49;;;;;;;1.23;1.15;;;23.70;59.10;;;;;;5113475;28;20253;-57
2023/07/15 12:40:15;;;;;;;1.23;1.13;;;23.70;59.00;;;;;;5113822;28;20232;-56
2023/07/15 12:42:41;;;;;;;1.80;1.70;;;23.70;59.00;;;;;;5113378;28;20228;-57
2023/07/15 12:45:07;;;;;;;2.33;1.38;;;23.70;59.00;;;;;;5113673;28;20714;-58